Time;durP1;ratioP1;P1;durP2;ratioP2;P2;SDS_P1;SDS_P2;PMS_P1;PMS_P2;Temp;Humidity;BMP_temperature;BMP_pressure;BME280_temperature;BME280_humidity;BME280_pressure;Samples;Min_cycle;Max_cycle;Signal;HPM_P1;HPM_P2
2023/07/03 00:00:33;;;;;;;15.30;7.93;;;;;;;;;;4967121;28;20038;-84
2023/07/03 00:02:58;;;;;;;11.48;7.15;;;;;;;;;;4963768;28;20382;-84
2023/07/03 00:05:24;;;;;;;11.70;7.55;;;;;;;;;;4963991;28;20059;-84
2023/07/03 00:07:50;;;;;;;14.13;7.53;;;;;;;;;;4967826;28;20189;-84
2023/07/03 00:10:16;;;;;;;15.20;8.20;;;;;;;;;;4967499;28;20110;-83
2023/07/03 00:12:42;;;;;;;13.98;7.80;;;;;;;;;;4967320;28;20098;-84
2023/07/03 00:15:09;;;;;;;12.80;7.90;;;;;;;;;;4977200;28;20035;-84
2023/07/03 00:17:37;;;;;;;12.80;7.80;;;;;;;;;;4969696;28;20042;-83
2023/07/03 00:20:04;;;;;;;13.73;8.20;;;;;;;;;;4938726;28;20106;-84
2023/07/03 00:22:29;;;;;;;12.13;7.38;;;;;;;;;;4963929;28;20042;-84
2023/07/03 00:24:55;;;;;;;14.40;7.72;;;;;;;;;;4968786;28;20042;-84
2023/07/03 00:27:21;;;;;;;11.95;7.80;;;;;;;;;;4962486;28;20038;-84
2023/07/03 00:29:46;;;;;;;15.45;8.43;;;;;;;;;;4948778;28;20039;-83
2023/07/03 00:32:12;;;;;;;13.40;8.52;;;;;;;;;;4973773;28;20035;-84
2023/07/03 00:34:37;;;;;;;11.25;7.35;;;;;;;;;;4956579;28;20039;-84
2023/07/03 00:37:03;;;;;;;12.80;7.85;;;;;;;;;;4965703;28;20031;-83
2023/07/03 00:39:29;;;;;;;12.32;7.55;;;;;;;;;;4950284;29;20043;-84
2023/07/03 00:41:54;;;;;;;11.98;7.85;;;;;;;;;;4950052;28;20178;-84
2023/07/03 00:44:20;;;;;;;11.40;7.35;;;;;;;;;;4974003;28;20042;-84
2023/07/03 00:46:48;;;;;;;12.70;7.60;;;;;;;;;;4969998;28;20027;-84
2023/07/03 00:49:14;;;;;;;12.20;7.45;;;;;;;;;;4943600;28;20474;-84
2023/07/03 00:51:46;;;;;;;12.52;7.85;;;;;;;;;;4948630;28;20039;-84
2023/07/03 00:54:12;;;;;;;11.98;7.25;;;;;;;;;;4964172;28;20035;-84
2023/07/03 00:56:37;;;;;;;14.18;7.72;;;;;;;;;;4968364;28;20096;-84
2023/07/03 00:59:04;;;;;;;13.15;7.97;;;;;;;;;;4966821;28;20654;-84
2023/07/03 01:01:35;;;;;;;14.25;7.70;;;;;;;;;;4954294;28;20098;-84
2023/07/03 01:04:08;;;;;;;12.82;7.60;;;;;;;;;;4973714;28;20425;-84
2023/07/03 01:06:43;;;;;;;14.55;8.07;;;;;;;;;;4952939;28;20457;-84
2023/07/03 01:09:12;;;;;;;12.57;7.68;;;;;;;;;;4963178;28;20038;-84
2023/07/03 01:11:38;;;;;;;15.32;8.05;;;;;;;;;;4967042;28;20046;-84
2023/07/03 01:14:07;;;;;;;12.48;7.97;;;;;;;;;;4969661;28;20031;-84
2023/07/03 01:16:33;;;;;;;11.60;7.50;;;;;;;;;;4954561;28;20118;-84
2023/07/03 01:19:00;;;;;;;14.35;8.80;;;;;;;;;;4953448;28;20039;-84
2023/07/03 01:21:42;;;;;;;14.23;8.93;;;;;;;;;;4976053;28;20058;-84
2023/07/03 01:24:15;;;;;;;14.57;8.18;;;;;;;;;;4949712;28;20083;-84
2023/07/03 01:26:43;;;;;;;13.80;8.52;;;;;;;;;;4948752;28;20035;-84
2023/07/03 01:29:18;;;;;;;15.80;8.38;;;;;;;;;;4941317;28;20512;-83
2023/07/03 01:31:44;;;;;;;15.25;9.25;;;;;;;;;;4970770;28;20046;-84
2023/07/03 01:34:11;;;;;;;16.20;9.48;;;;;;;;;;4947677;28;20043;-85
2023/07/03 01:36:38;;;;;;;14.63;8.77;;;;;;;;;;4957510;28;20039;-85
2023/07/03 01:39:04;;;;;;;14.93;9.30;;;;;;;;;;4963378;28;20093;-85
2023/07/03 01:41:30;;;;;;;13.93;8.95;;;;;;;;;;4964215;28;20031;-84
2023/07/03 01:43:56;;;;;;;15.35;9.20;;;;;;;;;;4971994;28;20085;-85
2023/07/03 01:46:22;;;;;;;17.00;9.48;;;;;;;;;;4961623;28;20066;-84
2023/07/03 01:48:47;;;;;;;14.32;8.45;;;;;;;;;;4966836;28;20022;-84
2023/07/03 01:51:22;;;;;;;12.80;8.80;;;;;;;;;;4959073;28;20030;-85
2023/07/03 01:54:01;;;;;;;17.17;9.55;;;;;;;;;;4963144;28;20039;-84
2023/07/03 01:56:32;;;;;;;15.52;9.02;;;;;;;;;;4970203;28;20031;-84
2023/07/03 01:59:10;;;;;;;12.38;8.30;;;;;;;;;;4952012;28;20042;-85
2023/07/03 02:02:00;;;;;;;14.75;8.77;;;;;;;;;;4958414;28;20111;-84
2023/07/03 02:04:33;;;;;;;14.93;8.55;;;;;;;;;;4971290;28;20035;-83
2023/07/03 02:07:00;;;;;;;;;;;;;;;;;;4947014;28;20026;-81
2023/07/03 02:09:26;;;;;;;12.32;7.85;;;;;;;;;;4993261;22;20354;-82
2023/07/03 02:11:53;;;;;;;11.88;6.97;;;;;;;;;;5036318;28;20091;-83
2023/07/03 02:14:19;;;;;;;13.77;7.43;;;;;;;;;;5036179;28;20612;-83
2023/07/03 02:16:47;;;;;;;11.50;7.43;;;;;;;;;;5022490;28;20038;-82
2023/07/03 02:19:15;;;;;;;11.15;7.00;;;;;;;;;;5021543;28;20447;-82
2023/07/03 02:21:44;;;;;;;15.07;7.22;;;;;;;;;;5021005;28;20124;-83
2023/07/03 02:24:11;;;;;;;14.52;7.75;;;;;;;;;;5024704;28;20096;-86
2023/07/03 02:26:39;;;;;;;12.82;7.03;;;;;;;;;;5023417;28;20067;-85
2023/07/03 02:29:04;;;;;;;12.15;6.93;;;;;;;;;;5023192;28;20033;-85
2023/07/03 02:31:30;;;;;;;11.45;6.97;;;;;;;;;;5023659;28;20057;-83
2023/07/03 02:33:56;;;;;;;12.15;5.95;;;;;;;;;;5040750;28;20426;-86
2023/07/03 02:36:25;;;;;;;13.85;7.20;;;;;;;;;;5040488;28;20026;-85
2023/07/03 02:38:50;;;;;;;11.45;6.75;;;;;;;;;;5022078;28;20041;-83
2023/07/03 02:41:16;;;;;;;15.20;7.22;;;;;;;;;;5005542;28;20110;-85
2023/07/03 02:43:41;;;;;;;10.88;6.78;;;;;;;;;;5040660;28;20152;-84
2023/07/03 02:46:08;;;;;;;11.65;7.10;;;;;;;;;;5027477;28;20041;-84
2023/07/03 02:48:34;;;;;;;12.80;7.22;;;;;;;;;;5040000;28;20036;-85
2023/07/03 02:50:59;;;;;;;11.50;6.78;;;;;;;;;;5022909;28;20061;-85
2023/07/03 02:53:25;;;;;;;14.43;7.03;;;;;;;;;;5021755;28;20034;-85
2023/07/03 02:55:57;;;;;;;11.68;7.15;;;;;;;;;;5022795;28;20080;-83
2023/07/03 02:58:24;;;;;;;12.50;7.00;;;;;;;;;;5021359;28;20033;-86
2023/07/03 03:00:52;;;;;;;12.68;7.18;;;;;;;;;;5005694;28;20132;-83
2023/07/03 03:03:18;;;;;;;10.70;6.78;;;;;;;;;;5037051;28;20040;-84
2023/07/03 03:05:43;;;;;;;10.35;6.82;;;;;;;;;;5021979;28;20029;-84
2023/07/03 03:08:11;;;;;;;11.27;7.00;;;;;;;;;;5022322;28;20110;-84
2023/07/03 03:10:37;;;;;;;11.02;6.85;;;;;;;;;;5019417;28;20034;-84
2023/07/03 03:13:03;;;;;;;12.68;6.82;;;;;;;;;;5039589;28;20491;-86
2023/07/03 03:15:34;;;;;;;12.07;7.10;;;;;;;;;;5021492;28;20026;-85
2023/07/03 03:18:00;;;;;;;11.63;7.10;;;;;;;;;;5028937;28;20045;-82
2023/07/03 03:20:26;;;;;;;9.90;6.95;;;;;;;;;;5021389;28;20056;-85
2023/07/03 03:22:51;;;;;;;13.07;6.90;;;;;;;;;;5022559;28;20426;-84
2023/07/03 03:25:16;;;;;;;13.02;6.90;;;;;;;;;;5039213;28;20625;-84
2023/07/03 03:27:42;;;;;;;12.35;7.05;;;;;;;;;;5020508;28;20048;-83
2023/07/03 03:30:08;;;;;;;12.18;7.43;;;;;;;;;;5019550;28;20040;-82
2023/07/03 03:32:38;;;;;;;12.43;7.10;;;;;;;;;;5019324;28;20037;-85
2023/07/03 03:35:05;;;;;;;10.50;6.72;;;;;;;;;;5004181;28;20037;-84
2023/07/03 03:37:31;;;;;;;10.23;6.90;;;;;;;;;;5027800;28;20097;-84
2023/07/03 03:39:59;;;;;;;13.07;6.35;;;;;;;;;;5021569;28;20045;-84
2023/07/03 03:42:25;;;;;;;9.50;6.68;;;;;;;;;;5038316;28;20029;-84
2023/07/03 03:44:51;;;;;;;11.93;7.25;;;;;;;;;;5039625;28;20522;-83
2023/07/03 03:47:16;;;;;;;12.15;7.00;;;;;;;;;;5037928;28;20368;-82
2023/07/03 03:49:42;;;;;;;10.90;6.85;;;;;;;;;;5037235;28;20124;-83
2023/07/03 03:52:07;;;;;;;9.55;6.20;;;;;;;;;;5019722;28;20037;-84
2023/07/03 03:54:33;;;;;;;12.35;6.80;;;;;;;;;;5019548;28;20079;-82
2023/07/03 03:56:58;;;;;;;12.77;6.53;;;;;;;;;;5019601;28;20037;-83
2023/07/03 03:59:24;;;;;;;10.48;6.50;;;;;;;;;;5019231;28;20090;-84
2023/07/03 04:01:51;;;;;;;15.10;6.88;;;;;;;;;;5020785;28;20034;-83
2023/07/03 04:04:16;;;;;;;10.90;7.00;;;;;;;;;;5039212;28;20040;-84
2023/07/03 04:06:43;;;;;;;14.23;7.50;;;;;;;;;;5038852;28;20033;-86
2023/07/03 04:09:09;;;;;;;10.25;6.80;;;;;;;;;;5038200;28;20400;-84
2023/07/03 04:11:35;;;;;;;13.20;6.90;;;;;;;;;;5039032;28;20029;-84
2023/07/03 04:14:01;;;;;;;13.93;7.10;;;;;;;;;;5021531;28;20426;-85
2023/07/03 04:16:29;;;;;;;13.52;7.05;;;;;;;;;;5021457;28;20029;-85
2023/07/03 04:18:55;;;;;;;11.32;6.85;;;;;;;;;;5038132;28;20065;-84
2023/07/03 04:21:20;;;;;;;13.02;7.20;;;;;;;;;;5037882;28;20054;-84
2023/07/03 04:23:47;;;;;;;10.45;6.82;;;;;;;;;;5039076;28;20116;-82
2023/07/03 04:26:13;;;;;;;11.60;6.72;;;;;;;;;;5037810;28;20049;-84
2023/07/03 04:28:38;;;;;;;14.20;7.22;;;;;;;;;;5019840;28;20033;-86
2023/07/03 04:31:03;;;;;;;9.85;6.72;;;;;;;;;;5019414;28;20033;-86
2023/07/03 04:33:29;;;;;;;11.82;7.20;;;;;;;;;;5037667;28;20040;-84
2023/07/03 04:35:54;;;;;;;11.55;7.03;;;;;;;;;;5036936;28;20491;-83
2023/07/03 04:38:23;;;;;;;11.48;7.30;;;;;;;;;;5037350;28;20064;-84
2023/07/03 04:40:53;;;;;;;11.52;7.05;;;;;;;;;;5036812;28;20033;-84
2023/07/03 04:43:19;;;;;;;14.80;7.55;;;;;;;;;;5039899;28;20039;-84
2023/07/03 04:45:48;;;;;;;11.45;7.68;;;;;;;;;;5037936;28;20036;-83
2023/07/03 04:48:15;;;;;;;12.50;7.50;;;;;;;;;;5033518;28;20458;-83
2023/07/03 04:50:40;;;;;;;13.38;7.43;;;;;;;;;;5019663;28;20509;-84
2023/07/03 04:53:06;;;;;;;11.00;6.45;;;;;;;;;;5024414;28;20034;-85
2023/07/03 04:55:33;;;;;;;19.13;8.20;;;;;;;;;;5036852;28;20037;-85
2023/07/03 04:57:59;;;;;;;12.32;7.30;;;;;;;;;;5037009;28;20025;-84
2023/07/03 05:00:27;;;;;;;12.02;7.15;;;;;;;;;;5035473;28;20044;-82
2023/07/03 05:02:57;;;;;;;12.52;7.38;;;;;;;;;;5018258;28;20037;-83
2023/07/03 05:05:24;;;;;;;12.70;7.70;;;;;;;;;;5036153;28;20021;-84
2023/07/03 05:07:49;;;;;;;13.82;7.40;;;;;;;;;;5036285;28;20041;-82
2023/07/03 05:10:17;;;;;;;12.32;7.97;;;;;;;;;;5035511;28;20042;-82
2023/07/03 05:12:44;;;;;;;14.25;7.78;;;;;;;;;;5001822;28;20055;-82
2023/07/03 05:15:12;;;;;;;12.90;7.60;;;;;;;;;;5031892;28;20064;-83
2023/07/03 05:17:38;;;;;;;12.60;7.05;;;;;;;;;;5034351;28;20041;-83
2023/07/03 05:20:22;;;;;;;15.32;6.80;;;;;;;;;;5033920;28;20463;-81
2023/07/03 05:22:48;;;;;;;14.48;7.05;;;;;;;;;;5036352;28;20394;-86
2023/07/03 05:25:14;;;;;;;13.10;7.55;;;;;;;;;;5034027;28;20044;-85
2023/07/03 05:27:40;;;;;;;12.30;7.18;;;;;;;;;;5018591;28;20103;-84
2023/07/03 05:30:07;;;;;;;15.05;6.95;;;;;;;;;;5017269;28;20037;-86
2023/07/03 05:32:33;;;;;;;13.75;7.43;;;;;;;;;;5035569;28;20068;-87
2023/07/03 05:35:00;;;;;;;14.25;7.88;;;;;;;;;;5037814;28;20091;-84
2023/07/03 05:37:25;;;;;;;11.73;7.13;;;;;;;;;;5035329;28;20036;-84
2023/07/03 05:39:51;;;;;;;11.30;7.47;;;;;;;;;;5038548;28;20101;-84
2023/07/03 05:42:17;;;;;;;15.13;7.78;;;;;;;;;;5039481;28;20034;-83
2023/07/03 05:44:43;;;;;;;13.68;7.85;;;;;;;;;;5035002;28;20459;-81
2023/07/03 05:47:09;;;;;;;15.98;7.75;;;;;;;;;;5019648;28;20097;-81
2023/07/03 05:49:35;;;;;;;12.60;7.80;;;;;;;;;;5037659;28;20092;-83
2023/07/03 05:52:00;;;;;;;14.82;7.50;;;;;;;;;;5037263;28;20487;-83
2023/07/03 05:54:26;;;;;;;12.40;7.53;;;;;;;;;;5036694;28;20763;-81
2023/07/03 05:56:59;;;;;;;14.10;8.23;;;;;;;;;;5036799;28;20038;-84
2023/07/03 05:59:25;;;;;;;15.43;8.57;;;;;;;;;;5018015;28;20038;-81
2023/07/03 06:01:53;;;;;;;11.07;7.20;;;;;;;;;;5018761;28;20040;-83
2023/07/03 06:04:19;;;;;;;16.23;8.05;;;;;;;;;;5036360;28;20041;-82
2023/07/03 06:06:44;;;;;;;12.05;7.68;;;;;;;;;;5037834;28;20100;-83
2023/07/03 06:09:10;;;;;;;13.40;8.20;;;;;;;;;;5036708;28;20037;-83
2023/07/03 06:11:35;;;;;;;13.55;8.05;;;;;;;;;;5025112;28;20029;-82
2023/07/03 06:14:01;;;;;;;12.13;7.93;;;;;;;;;;5019218;28;20037;-82
2023/07/03 06:16:27;;;;;;;14.32;8.35;;;;;;;;;;5042456;28;20121;-84
2023/07/03 06:18:54;;;;;;;12.75;8.27;;;;;;;;;;5041332;28;20402;-86
2023/07/03 06:21:19;;;;;;;13.88;8.20;;;;;;;;;;5039041;28;20091;-86
2023/07/03 06:23:45;;;;;;;14.23;8.32;;;;;;;;;;5037841;28;20029;-85
2023/07/03 06:26:10;;;;;;;13.40;8.07;;;;;;;;;;5037063;28;20029;-85
2023/07/03 06:28:36;;;;;;;17.60;8.75;;;;;;;;;;5017856;28;20396;-84
2023/07/03 06:31:02;;;;;;;15.00;8.40;;;;;;;;;;5036398;28;20491;-86
2023/07/03 06:33:28;;;;;;;12.98;7.25;;;;;;;;;;5039030;28;20671;-84
2023/07/03 06:35:53;;;;;;;18.90;9.00;;;;;;;;;;5038157;28;20072;-86
2023/07/03 06:38:19;;;;;;;14.45;8.50;;;;;;;;;;5021467;28;20113;-84
2023/07/03 06:40:54;;;;;;;15.20;8.35;;;;;;;;;;5042227;28;20056;-85
2023/07/03 06:43:20;;;;;;;16.23;9.68;;;;;;;;;;5019306;28;20468;-83
2023/07/03 06:45:45;;;;;;;14.73;9.05;;;;;;;;;;5041083;28;20053;-83
2023/07/03 06:48:11;;;;;;;16.33;9.32;;;;;;;;;;5041450;28;20419;-83
2023/07/03 06:50:36;;;;;;;16.95;9.77;;;;;;;;;;5040797;28;20076;-86
2023/07/03 06:53:02;;;;;;;17.35;9.27;;;;;;;;;;5023420;28;20041;-85
2023/07/03 06:55:27;;;;;;;16.52;9.20;;;;;;;;;;5041864;28;20045;-83
2023/07/03 06:57:53;;;;;;;15.05;9.43;;;;;;;;;;5043112;28;20049;-84
2023/07/03 07:00:18;;;;;;;15.02;9.45;;;;;;;;;;5023303;28;20114;-84
2023/07/03 07:02:44;;;;;;;15.95;10.10;;;;;;;;;;5042857;28;20042;-84
2023/07/03 07:05:10;;;;;;;18.17;10.02;;;;;;;;;;5042699;28;20041;-85
2023/07/03 07:07:35;;;;;;;13.48;9.13;;;;;;;;;;5040465;28;20030;-86
2023/07/03 07:10:01;;;;;;;17.95;9.70;;;;;;;;;;5022303;28;20045;-86
2023/07/03 07:12:26;;;;;;;15.27;8.80;;;;;;;;;;5041058;28;20037;-86
2023/07/03 07:14:51;;;;;;;16.40;9.27;;;;;;;;;;5022858;28;20033;-86
2023/07/03 07:17:17;;;;;;;16.83;9.55;;;;;;;;;;5039592;28;20038;-86
2023/07/03 07:19:42;;;;;;;17.98;9.38;;;;;;;;;;5005935;28;20071;-84
2023/07/03 07:22:08;;;;;;;15.55;9.00;;;;;;;;;;5039747;28;20033;-82
2023/07/03 07:24:33;;;;;;;15.95;8.93;;;;;;;;;;5036452;28;20088;-82
2023/07/03 07:27:00;;;;;;;15.68;9.07;;;;;;;;;;5035628;28;20680;-83
2023/07/03 07:29:26;;;;;;;16.30;9.15;;;;;;;;;;5035251;28;20120;-83
2023/07/03 07:31:55;;;;;;;16.33;8.68;;;;;;;;;;5034953;28;20068;-82
2023/07/03 07:34:21;;;;;;;18.08;9.02;;;;;;;;;;5000191;28;20038;-81
2023/07/03 07:36:47;;;;;;;15.07;8.80;;;;;;;;;;5016434;28;20036;-83
2023/07/03 07:39:12;;;;;;;14.15;8.68;;;;;;;;;;5033211;28;20456;-84
2023/07/03 07:41:38;;;;;;;15.93;7.95;;;;;;;;;;5029188;28;20042;-84
2023/07/03 07:44:05;;;;;;;15.02;7.78;;;;;;;;;;5021277;28;20044;-83
2023/07/03 07:46:32;;;;;;;14.00;7.55;;;;;;;;;;5038832;28;20025;-83
2023/07/03 07:48:59;;;;;;;12.85;7.55;;;;;;;;;;5019864;28;20044;-84
2023/07/03 07:51:25;;;;;;;13.38;7.30;;;;;;;;;;5038467;28;20033;-82
2023/07/03 07:53:55;;;;;;;14.23;7.07;;;;;;;;;;5039491;28;20706;-84
2023/07/03 07:56:22;;;;;;;14.77;7.40;;;;;;;;;;5036915;28;20634;-82
2023/07/03 07:58:48;;;;;;;13.70;7.40;;;;;;;;;;5034875;28;20053;-84
2023/07/03 08:01:14;;;;;;;15.45;7.20;;;;;;;;;;5020233;28;20052;-83
2023/07/03 08:03:41;;;;;;;12.20;7.13;;;;;;;;;;5020507;28;20029;-82
2023/07/03 08:06:08;;;;;;;14.20;6.80;;;;;;;;;;5020673;28;20034;-83
2023/07/03 08:08:36;;;;;;;13.90;6.95;;;;;;;;;;5019998;28;20039;-84
2023/07/03 08:11:04;;;;;;;12.80;7.07;;;;;;;;;;5019245;28;20399;-86
2023/07/03 08:13:31;;;;;;;17.38;7.15;;;;;;;;;;5038080;28;20491;-82
2023/07/03 08:15:57;;;;;;;12.98;6.45;;;;;;;;;;5037531;28;20084;-86
2023/07/03 08:18:23;;;;;;;15.90;6.65;;;;;;;;;;5020280;28;20037;-84
2023/07/03 08:20:50;;;;;;;14.73;6.78;;;;;;;;;;5019983;28;20050;-85
2023/07/03 08:23:16;;;;;;;14.38;7.00;;;;;;;;;;5037673;28;20060;-84
2023/07/03 08:25:42;;;;;;;13.45;6.70;;;;;;;;;;5036554;28;20029;-81
2023/07/03 08:28:09;;;;;;;13.55;6.78;;;;;;;;;;5037642;28;20049;-85
2023/07/03 08:30:35;;;;;;;12.98;6.53;;;;;;;;;;5016027;28;20071;-83
2023/07/03 08:33:01;;;;;;;16.55;7.07;;;;;;;;;;5034199;28;20052;-82
2023/07/03 08:35:26;;;;;;;16.13;6.68;;;;;;;;;;5033702;28;20041;-84
2023/07/03 08:37:52;;;;;;;10.77;6.53;;;;;;;;;;5034745;28;20030;-83
2023/07/03 08:40:22;;;;;;;14.57;6.85;;;;;;;;;;5028277;28;20029;-85
2023/07/03 08:42:54;;;;;;;14.95;6.47;;;;;;;;;;5040214;23;20958;-85
2023/07/03 08:45:22;;;;;;;15.60;6.18;;;;;;;;;;5006165;28;20409;-85
2023/07/03 08:47:51;;;;;;;13.20;6.72;;;;;;;;;;5027373;28;20018;-84
2023/07/03 08:50:20;;;;;;;12.98;6.47;;;;;;;;;;5002399;28;20073;-85
2023/07/03 08:52:52;;;;;;;11.75;6.65;;;;;;;;;;5013544;28;20038;-86
2023/07/03 08:55:23;;;;;;;12.52;6.40;;;;;;;;;;5011881;28;20026;-85
2023/07/03 08:57:49;;;;;;;14.40;6.40;;;;;;;;;;5007179;28;20038;-87
2023/07/03 09:00:15;;;;;;;11.48;5.88;;;;;;;;;;5009914;28;20025;-85
2023/07/03 09:02:48;;;;;;;12.43;6.15;;;;;;;;;;5002774;28;20038;-85
2023/07/03 09:05:30;;;;;;;11.32;6.10;;;;;;;;;;5006818;28;20087;-87
2023/07/03 09:08:01;;;;;;;12.48;5.93;;;;;;;;;;5010516;28;20478;-86
2023/07/03 09:10:47;;;;;;;14.80;6.32;;;;;;;;;;5005744;28;20676;-86
2023/07/03 09:13:24;;;;;;;10.27;5.82;;;;;;;;;;5008420;28;20060;-86
2023/07/03 09:16:07;;;;;;;11.20;5.97;;;;;;;;;;4985874;28;20034;-86
2023/07/03 09:18:37;;;;;;;10.57;6.10;;;;;;;;;;5008686;28;20026;-87
2023/07/03 09:21:03;;;;;;;10.23;6.03;;;;;;;;;;5005944;28;20037;-86
2023/07/03 09:23:38;;;;;;;11.50;6.03;;;;;;;;;;5008037;28;20095;-86
2023/07/03 09:26:30;;;;;;;12.70;6.35;;;;;;;;;;5017732;28;20118;-87
2023/07/03 09:28:58;;;;;;;15.60;6.10;;;;;;;;;;5012504;28;20037;-85
2023/07/03 09:31:26;;;;;;;12.25;6.13;;;;;;;;;;5004040;28;20128;-86
2023/07/03 09:33:52;;;;;;;12.35;6.70;;;;;;;;;;5002923;28;20041;-86
2023/07/03 09:36:36;;;;;;;12.95;6.15;;;;;;;;;;5013027;28;20030;-86
2023/07/03 09:39:13;;;;;;;12.98;6.20;;;;;;;;;;5007900;28;20049;-85
2023/07/03 09:41:39;;;;;;;13.02;6.35;;;;;;;;;;5002822;28;20055;-86
2023/07/03 09:44:17;;;;;;;11.98;6.10;;;;;;;;;;5005937;28;20034;-84
2023/07/03 09:46:43;;;;;;;10.45;5.80;;;;;;;;;;4987853;28;20022;-85
2023/07/03 09:49:28;;;;;;;10.70;6.20;;;;;;;;;;5011554;28;20212;-85
2023/07/03 09:51:57;;;;;;;12.35;6.15;;;;;;;;;;5003169;28;20068;-85
2023/07/03 09:54:26;;;;;;;11.30;6.30;;;;;;;;;;5002360;28;20018;-85
2023/07/03 09:56:52;;;;;;;12.82;6.28;;;;;;;;;;5005107;28;20041;-85
2023/07/03 09:59:20;;;;;;;9.80;6.18;;;;;;;;;;5011422;28;20046;-85
2023/07/03 10:01:47;;;;;;;12.35;6.25;;;;;;;;;;5009704;28;20094;-86
2023/07/03 10:04:14;;;;;;;12.88;6.70;;;;;;;;;;5006136;28;20037;-84
2023/07/03 10:06:51;;;;;;;14.18;6.50;;;;;;;;;;4986405;28;20030;-85
2023/07/03 10:09:24;;;;;;;11.85;6.90;;;;;;;;;;4987569;28;20053;-84
2023/07/03 10:12:23;;;;;;;12.23;6.35;;;;;;;;;;5008350;28;20044;-85
2023/07/03 10:14:58;;;;;;;15.13;6.43;;;;;;;;;;5004758;28;20118;-85
2023/07/03 10:17:30;;;;;;;11.45;5.88;;;;;;;;;;4998374;28;20053;-84
2023/07/03 10:20:00;;;;;;;13.00;6.20;;;;;;;;;;4999791;28;20042;-84
2023/07/03 10:22:26;;;;;;;12.18;6.15;;;;;;;;;;5006022;28;20049;-86
2023/07/03 10:24:55;;;;;;;11.75;5.97;;;;;;;;;;5017454;28;20046;-86
2023/07/03 10:27:25;;;;;;;12.75;6.32;;;;;;;;;;4999616;28;20038;-86
2023/07/03 10:29:53;;;;;;;13.27;6.43;;;;;;;;;;5020334;28;20042;-85
2023/07/03 10:32:20;;;;;;;12.02;6.10;;;;;;;;;;5019842;28;20492;-85
2023/07/03 10:34:55;;;;;;;11.88;6.47;;;;;;;;;;4998888;28;20540;-85
2023/07/03 10:37:22;;;;;;;13.48;6.57;;;;;;;;;;5012472;28;20065;-86
2023/07/03 10:39:59;;;;;;;14.93;6.43;;;;;;;;;;5017194;28;20400;-85
2023/07/03 10:42:58;;;;;;;13.40;6.32;;;;;;;;;;5021856;28;20038;-86
2023/07/03 10:45:25;;;;;;;12.27;6.00;;;;;;;;;;5014409;28;20049;-85
2023/07/03 10:48:09;;;;;;;11.07;6.30;;;;;;;;;;5016269;28;20057;-85
2023/07/03 10:51:13;;;;;;;10.93;5.90;;;;;;;;;;4984575;28;20069;-85
2023/07/03 10:53:59;;;;;;;13.30;6.13;;;;;;;;;;5006597;28;20061;-86
2023/07/03 10:56:44;;;;;;;12.07;6.10;;;;;;;;;;4988500;28;20046;-86
2023/07/03 10:59:19;;;;;;;11.85;5.70;;;;;;;;;;5009704;28;20042;-86
2023/07/03 11:02:03;;;;;;;11.85;5.95;;;;;;;;;;5008539;28;20049;-85
2023/07/03 11:04:52;;;;;;;11.95;6.25;;;;;;;;;;5005397;28;20109;-86
2023/07/03 11:07:47;;;;;;;13.10;6.38;;;;;;;;;;5002310;28;20571;-86
2023/07/03 11:10:31;;;;;;;9.75;5.78;;;;;;;;;;4991466;28;20476;-84
2023/07/03 11:13:04;;;;;;;;;;;;;;;;;;5011009;28;20041;-85
2023/07/03 11:15:39;;;;;;;13.23;5.70;;;;;;;;;;5004722;28;20029;-85
2023/07/03 11:18:48;;;;;;;12.32;6.28;;;;;;;;;;4997700;28;20424;-86
2023/07/03 11:21:35;;;;;;;12.48;5.93;;;;;;;;;;5007113;28;20092;-86
2023/07/03 11:24:22;;;;;;;12.55;6.10;;;;;;;;;;5003889;28;20093;-85
2023/07/03 11:27:03;;;;;;;14.18;5.68;;;;;;;;;;4985748;28;20034;-84
2023/07/03 11:29:29;;;;;;;10.98;6.00;;;;;;;;;;5013929;28;20041;-85
2023/07/03 11:31:56;;;;;;;11.52;5.97;;;;;;;;;;5011511;28;20690;-85
2023/07/03 11:34:23;;;;;;;13.48;6.35;;;;;;;;;;5009469;28;20084;-85
2023/07/03 11:36:51;;;;;;;11.68;6.18;;;;;;;;;;5015725;28;20045;-84
2023/07/03 11:39:22;;;;;;;11.85;6.15;;;;;;;;;;5003382;28;20062;-85
2023/07/03 11:41:59;;;;;;;14.82;6.40;;;;;;;;;;5009374;28;20061;-85
2023/07/03 11:44:31;;;;;;;11.95;6.20;;;;;;;;;;4982816;28;20064;-86
2023/07/03 11:47:07;;;;;;;11.80;6.10;;;;;;;;;;5010165;28;20042;-85
2023/07/03 11:49:48;;;;;;;11.60;5.80;;;;;;;;;;4992749;28;20038;-85
2023/07/03 11:52:25;;;;;;;11.60;5.85;;;;;;;;;;5005030;28;20510;-86
2023/07/03 11:55:01;;;;;;;12.23;5.43;;;;;;;;;;5003370;28;20089;-85
2023/07/03 11:57:33;;;;;;;14.32;6.05;;;;;;;;;;4983997;28;20072;-85
2023/07/03 12:00:16;;;;;;;13.20;6.55;;;;;;;;;;5006893;28;20069;-85
2023/07/03 12:02:53;;;;;;;13.73;5.82;;;;;;;;;;5004938;28;20042;-85
2023/07/03 12:05:49;;;;;;;11.50;6.03;;;;;;;;;;4989691;28;20105;-86
2023/07/03 12:08:17;;;;;;;13.93;6.50;;;;;;;;;;5005222;28;20492;-85
2023/07/03 12:11:04;;;;;;;10.45;6.10;;;;;;;;;;5001312;28;20022;-85
2023/07/03 12:13:39;;;;;;;11.10;5.97;;;;;;;;;;5002806;28;20076;-85
2023/07/03 12:16:22;;;;;;;14.23;5.90;;;;;;;;;;4987903;28;20062;-85
2023/07/03 12:18:58;;;;;;;12.20;6.00;;;;;;;;;;5009709;28;20039;-83
2023/07/03 12:21:24;;;;;;;11.90;6.20;;;;;;;;;;4998924;28;20500;-83
2023/07/03 12:23:51;;;;;;;14.15;6.47;;;;;;;;;;5006153;28;20065;-81
2023/07/03 12:26:17;;;;;;;13.80;6.22;;;;;;;;;;5006311;28;20042;-82
2023/07/03 12:28:44;;;;;;;12.85;6.18;;;;;;;;;;5007146;28;20038;-83
2023/07/03 12:31:11;;;;;;;10.73;6.13;;;;;;;;;;4998568;28;20049;-82
2023/07/03 12:33:36;;;;;;;11.80;6.32;;;;;;;;;;4980837;28;20034;-83
2023/07/03 12:36:02;;;;;;;11.10;6.13;;;;;;;;;;5005760;28;20069;-82
2023/07/03 12:38:27;;;;;;;11.35;5.93;;;;;;;;;;5001862;28;20044;-82
2023/07/03 12:40:53;;;;;;;11.50;6.28;;;;;;;;;;5001592;28;20072;-83
2023/07/03 12:43:19;;;;;;;13.57;5.68;;;;;;;;;;4998610;28;20038;-82
2023/07/03 12:45:52;;;;;;;12.18;5.80;;;;;;;;;;4997675;28;20473;-82
2023/07/03 12:48:19;;;;;;;13.00;6.22;;;;;;;;;;5001131;28;20031;-83
2023/07/03 12:50:52;;;;;;;10.50;6.05;;;;;;;;;;4998682;28;20037;-82
2023/07/03 12:53:18;;;;;;;13.50;5.97;;;;;;;;;;5002885;28;20041;-82
2023/07/03 12:55:48;;;;;;;12.30;6.38;;;;;;;;;;4993205;28;20037;-82
2023/07/03 12:58:14;;;;;;;12.85;6.10;;;;;;;;;;4983915;28;20052;-81
2023/07/03 13:00:39;;;;;;;11.07;6.18;;;;;;;;;;4997020;28;20097;-83
2023/07/03 13:03:07;;;;;;;13.23;6.53;;;;;;;;;;4996942;28;20034;-82
2023/07/03 13:05:35;;;;;;;10.48;5.90;;;;;;;;;;5001810;28;20038;-83
2023/07/03 13:08:05;;;;;;;14.23;6.38;;;;;;;;;;4977290;28;20058;-82
2023/07/03 13:10:31;;;;;;;13.98;6.72;;;;;;;;;;5000691;28;20060;-82
2023/07/03 13:13:18;;;;;;;12.90;5.97;;;;;;;;;;5008665;28;20033;-82
2023/07/03 13:15:44;;;;;;;11.52;6.03;;;;;;;;;;5000171;28;20089;-82
2023/07/03 13:18:13;;;;;;;11.07;5.68;;;;;;;;;;4979543;28;20050;-83
2023/07/03 13:21:04;;;;;;;12.90;6.20;;;;;;;;;;4998687;28;20114;-83
2023/07/03 13:23:31;;;;;;;12.95;6.38;;;;;;;;;;5003478;28;20424;-82
2023/07/03 13:25:57;;;;;;;14.40;6.10;;;;;;;;;;5003002;28;20041;-81
2023/07/03 13:28:25;;;;;;;12.32;6.10;;;;;;;;;;5000491;28;20037;-81
2023/07/03 13:31:03;;;;;;;11.10;6.43;;;;;;;;;;4990289;28;20048;-82
2023/07/03 13:33:29;;;;;;;9.98;5.68;;;;;;;;;;5010456;28;20037;-81
2023/07/03 13:35:55;;;;;;;13.02;6.07;;;;;;;;;;4981046;28;20070;-81
2023/07/03 13:38:23;;;;;;;11.85;6.00;;;;;;;;;;4998236;28;20041;-81
2023/07/03 13:40:51;;;;;;;12.57;5.82;;;;;;;;;;5001914;28;20052;-81
2023/07/03 13:43:26;;;;;;;13.35;6.75;;;;;;;;;;5006691;28;20034;-82
2023/07/03 13:45:54;;;;;;;17.98;6.05;;;;;;;;;;4999061;28;20045;-82
2023/07/03 13:48:20;;;;;;;13.25;6.32;;;;;;;;;;4985739;28;20084;-81
2023/07/03 13:50:47;;;;;;;75.90;8.68;;;;;;;;;;4995783;28;20035;-81
2023/07/03 13:53:13;;;;;;;17.27;6.20;;;;;;;;;;4998274;28;20534;-82
2023/07/03 13:55:38;;;;;;;14.38;6.10;;;;;;;;;;5001787;28;20034;-82
2023/07/03 13:58:04;;;;;;;177.07;12.38;;;;;;;;;;4998603;28;20485;-82
2023/07/03 14:00:30;;;;;;;52.60;7.70;;;;;;;;;;4988719;28;20038;-83
2023/07/03 14:02:55;;;;;;;16.42;6.55;;;;;;;;;;5001723;28;20042;-82
2023/07/03 14:05:21;;;;;;;30.67;6.75;;;;;;;;;;5000267;28;20132;-82
2023/07/03 14:07:47;;;;;;;13.48;6.30;;;;;;;;;;4979603;28;20404;-82
2023/07/03 14:10:13;;;;;;;10.88;5.80;;;;;;;;;;4997279;28;20034;-82
2023/07/03 14:12:38;;;;;;;12.00;6.32;;;;;;;;;;5004900;28;20566;-85
2023/07/03 14:15:15;;;;;;;10.13;5.93;;;;;;;;;;5008222;28;20077;-85
2023/07/03 14:17:41;;;;;;;12.88;5.88;;;;;;;;;;5012833;28;20044;-85
2023/07/03 14:20:11;;;;;;;13.13;5.95;;;;;;;;;;5021559;28;20085;-85
2023/07/03 14:22:37;;;;;;;11.25;6.22;;;;;;;;;;5008976;28;20038;-86
2023/07/03 14:25:03;;;;;;;13.43;6.10;;;;;;;;;;5003046;28;20057;-86
2023/07/03 14:27:31;;;;;;;13.75;6.30;;;;;;;;;;5010511;28;20036;-85
2023/07/03 14:29:57;;;;;;;10.60;6.10;;;;;;;;;;5012832;28;20045;-85
2023/07/03 14:32:23;;;;;;;10.23;6.03;;;;;;;;;;5015698;28;20047;-84
2023/07/03 14:34:48;;;;;;;9.80;5.78;;;;;;;;;;5012909;28;20049;-84
2023/07/03 14:37:14;;;;;;;11.27;6.20;;;;;;;;;;5014558;28;20034;-83
2023/07/03 14:39:39;;;;;;;13.30;5.50;;;;;;;;;;4997187;28;20046;-82
2023/07/03 14:42:05;;;;;;;12.77;5.93;;;;;;;;;;5000710;28;20038;-83